Time;durP1;ratioP1;P1;durP2;ratioP2;P2;SDS_P1;SDS_P2;PMS_P1;PMS_P2;Temp;Humidity;BMP_temperature;BMP_pressure;BME280_temperature;BME280_humidity;BME280_pressure;Samples;Min_cycle;Max_cycle;Signal;HPM_P1;HPM_P2
2023/11/18 00:00:26;;;;;;;4.80;3.60;;;;;;;5.72;100.00;102363.88;6092289;29;20936;-70
2023/11/18 00:03:47;;;;;;;4.87;4.47;;;;;;;5.80;100.00;102367.94;6091775;29;20311;-69
2023/11/18 00:07:09;;;;;;;4.23;3.93;;;;;;;5.79;100.00;102360.88;6075528;28;20228;-69
2023/11/18 00:10:31;;;;;;;4.97;4.53;;;;;;;5.91;100.00;102354.13;6094999;28;20236;-69
2023/11/18 00:13:52;;;;;;;4.73;4.23;;;;;;;5.92;100.00;102343.38;6085705;29;20723;-69
2023/11/18 00:17:13;;;;;;;4.33;3.93;;;;;;;6.04;100.00;102349.94;6106549;29;20335;-69
2023/11/18 00:20:35;;;;;;;6.53;4.43;;;;;;;5.84;100.00;102347.34;6104511;29;20228;-69
2023/11/18 00:23:56;;;;;;;5.47;4.97;;;;;;;5.74;100.00;102352.19;6096773;28;20239;-70
2023/11/18 00:27:19;;;;;;;4.43;4.03;;;;;;;5.89;100.00;102346.16;6098084;29;20663;-69
2023/11/18 00:30:40;;;;;;;3.60;3.10;;;;;;;5.90;100.00;102352.41;6104129;28;20558;-70
2023/11/18 00:34:01;;;;;;;4.77;4.37;;;;;;;5.90;100.00;102352.41;6103712;28;20244;-69
2023/11/18 00:37:22;;;;;;;4.47;4.07;;;;;;;5.93;100.00;102345.09;6103204;29;20231;-70
2023/11/18 00:40:43;;;;;;;3.40;3.10;;;;;;;5.89;100.00;102358.69;6098245;29;20236;-69
2023/11/18 00:44:07;;;;;;;4.43;4.03;;;;;;;5.89;100.00;102364.03;6105051;29;20542;-69
2023/11/18 00:47:28;;;;;;;4.30;3.90;;;;;;;6.03;100.00;102358.94;6099430;29;20243;-69
2023/11/18 00:50:49;;;;;;;6.03;4.50;;;;;;;6.04;100.00;102348.16;6104147;29;20239;-69
2023/11/18 00:54:11;;;;;;;4.57;4.07;;;;;;;6.05;100.00;102357.06;6104794;29;20239;-70
2023/11/18 00:57:32;;;;;;;3.70;3.40;;;;;;;6.15;100.00;102356.53;6098739;29;20247;-68
2023/11/18 01:00:54;;;;;;;4.40;4.00;;;;;;;6.19;100.00;102359.94;6102011;29;20259;-68
2023/11/18 01:04:15;;;;;;;5.07;4.33;;;;;;;6.05;100.00;102357.91;6106564;29;20256;-69
2023/11/18 01:07:36;;;;;;;4.20;3.73;;;;;;;5.96;100.00;102363.69;6106964;28;20235;-69
2023/11/18 01:10:57;;;;;;;4.37;3.97;;;;;;;6.07;100.00;102360.53;6098402;29;20303;-69
2023/11/18 01:14:19;;;;;;;7.00;5.50;;;;;;;6.06;100.00;102365.00;6105797;28;20283;-68
2023/11/18 01:17:41;;;;;;;5.43;4.93;;;;;;;6.04;100.00;102357.97;6108117;28;20231;-69
2023/11/18 01:21:02;;;;;;;4.43;3.83;;;;;;;6.04;100.00;102366.88;6108997;29;20248;-69
2023/11/18 01:24:23;;;;;;;5.50;5.00;;;;;;;6.02;100.00;102370.56;6105774;29;20232;-69
2023/11/18 01:27:46;;;;;;;5.23;4.23;;;;;;;6.03;100.00;102366.97;6101227;29;20307;-68
2023/11/18 01:31:09;;;;;;;4.87;4.37;;;;;;;6.00;100.00;102369.78;6102475;29;20267;-69
2023/11/18 01:34:31;;;;;;;5.47;4.47;;;;;;;5.96;100.00;102366.38;6099680;28;20333;-70
2023/11/18 01:37:54;;;;;;;4.63;4.23;;;;;;;5.87;100.00;102366.78;6103326;29;20627;-70
2023/11/18 01:41:15;;;;;;;6.13;4.67;;;;;;;5.92;100.00;102361.22;6104379;29;20318;-69
2023/11/18 01:44:36;;;;;;;6.27;5.07;;;;;;;5.88;100.00;102362.31;6106641;28;21037;-69
2023/11/18 01:47:57;;;;;;;4.53;4.13;;;;;;;5.87;100.00;102368.59;6090573;29;20236;-69
2023/11/18 01:51:20;;;;;;;4.17;3.77;;;;;;;5.83;100.00;102373.19;6105158;29;20236;-69
2023/11/18 01:54:44;;;;;;;4.23;3.77;;;;;;;5.77;100.00;102373.47;6096143;28;20239;-69
2023/11/18 01:58:08;;;;;;;5.10;4.60;;;;;;;5.74;100.00;102388.78;6103909;29;20677;-70
2023/11/18 02:01:30;;;;;;;4.87;4.47;;;;;;;5.52;100.00;102379.03;6090415;29;20254;-69
2023/11/18 02:04:51;;;;;;;4.90;4.50;;;;;;;5.65;100.00;102387.38;6101826;29;20232;-69
2023/11/18 02:08:14;;;;;;;5.33;4.77;;;;;;;5.71;100.00;102381.75;6086408;29;20239;-70
2023/11/18 02:11:41;;;;;;;4.80;3.97;;;;;;;5.59;100.00;102387.66;6098839;29;20645;-69
2023/11/18 02:15:09;;;;;;;4.20;3.80;;;;;;;5.67;100.00;102388.19;6099534;29;20247;-69
2023/11/18 02:18:31;;;;;;;5.10;4.60;;;;;;;5.66;100.00;102397.13;6115381;28;20282;-70
2023/11/18 02:21:54;;;;;;;4.33;3.93;;;;;;;5.61;100.00;102396.50;6106199;28;20239;-70
2023/11/18 02:25:18;;;;;;;5.37;4.63;;;;;;;5.73;100.00;102403.09;6107453;29;20689;-69
2023/11/18 02:28:40;;;;;;;4.10;3.80;;;;;;;5.72;100.00;102395.97;6103274;29;20244;-69
2023/11/18 02:32:12;;;;;;;4.77;4.30;;;;;;;5.75;100.00;102412.78;6106369;29;20247;-69
2023/11/18 02:35:39;;;;;;;4.40;3.97;;;;;;;5.74;100.00;102399.50;6107075;29;20269;-69
2023/11/18 02:39:02;;;;;;;6.43;5.37;;;;;;;5.84;100.00;102408.88;6103209;29;20236;-69
2023/11/18 02:42:27;;;;;;;4.40;4.00;;;;;;;5.92;100.00;102404.91;6100376;29;20319;-69
2023/11/18 02:45:50;;;;;;;5.80;4.20;;;;;;;5.97;100.00;102407.38;6094882;29;20256;-69
2023/11/18 02:49:12;;;;;;;4.83;4.40;;;;;;;6.00;100.00;102407.25;6096699;29;20318;-69
2023/11/18 02:52:34;;;;;;;6.37;4.47;;;;;;;5.99;100.00;102417.06;6105063;29;20236;-70
2023/11/18 02:56:02;;;;;;;4.20;3.83;;;;;;;5.88;100.00;102422.06;6098691;29;22621;-69
2023/11/18 02:59:23;;;;;;;4.73;4.30;;;;;;;5.61;100.00;102421.41;6104040;29;20244;-69
2023/11/18 03:02:47;;;;;;;6.60;5.03;;;;;;;5.49;100.00;102415.72;6108866;28;20236;-71
2023/11/18 03:06:11;;;;;;;5.20;4.60;;;;;;;5.59;100.00;102425.97;6106739;29;20231;-68
2023/11/18 03:09:34;;;;;;;5.00;4.57;;;;;;;5.68;100.00;102427.38;6105189;29;20247;-69
2023/11/18 03:12:56;;;;;;;6.63;5.97;;;;;;;5.65;100.00;102416.81;6108221;29;20532;-69
2023/11/18 03:16:17;;;;;;;5.50;4.93;;;;;;;5.57;100.00;102414.44;6103579;29;20729;-69
2023/11/18 03:19:41;;;;;;;5.20;4.73;;;;;;;5.62;100.00;102416.94;6104885;29;20662;-69
2023/11/18 03:23:02;;;;;;;5.03;4.53;;;;;;;5.62;100.00;102406.25;6100432;29;20240;-69
2023/11/18 03:26:23;;;;;;;5.07;4.67;;;;;;;5.45;100.00;102415.00;6104342;29;20239;-69
2023/11/18 03:29:46;;;;;;;4.03;3.60;;;;;;;5.41;100.00;102413.38;6110380;28;20236;-69
2023/11/18 03:33:10;;;;;;;5.37;4.87;;;;;;;5.18;100.00;102415.28;6103020;29;20239;-69
2023/11/18 03:36:32;;;;;;;5.37;4.90;;;;;;;5.02;100.00;102419.53;6108289;29;20243;-69
2023/11/18 03:39:53;;;;;;;5.17;4.67;;;;;;;5.02;100.00;102419.53;6105984;29;20597;-69
2023/11/18 03:43:14;;;;;;;5.57;5.03;;;;;;;5.16;100.00;102420.69;6107023;29;20252;-69
2023/11/18 03:46:35;;;;;;;5.13;4.63;;;;;;;5.09;100.00;102426.38;6092197;29;20263;-69
2023/11/18 03:49:56;;;;;;;6.87;5.83;;;;;;;4.97;100.00;102422.38;6101470;29;20338;-70
2023/11/18 03:53:19;;;;;;;7.17;6.50;;;;;;;4.97;100.00;102430.41;6094371;29;20318;-70
2023/11/18 03:56:39;;;;;;;12.73;11.63;;;;;;;5.04;100.00;102433.69;6104000;28;20510;-69
2023/11/18 04:00:01;;;;;;;10.43;9.43;;;;;;;4.97;100.00;102433.06;6099058;29;20510;-69
2023/11/18 04:03:21;;;;;;;14.17;12.57;;;;;;;4.97;100.00;102427.72;6118340;29;20224;-69
2023/11/18 04:06:42;;;;;;;15.87;11.10;;;;;;;4.97;100.00;102426.84;6101094;28;20236;-70
2023/11/18 04:10:10;;;;;;;9.43;8.53;;;;;;;4.96;100.00;102428.69;6099972;29;20702;-72
2023/11/18 04:13:30;;;;;;;9.37;8.47;;;;;;;5.09;100.00;102427.22;6103806;29;20911;-69
2023/11/18 04:16:51;;;;;;;7.67;6.63;;;;;;;5.06;100.00;102432.72;6100323;29;20236;-68
2023/11/18 04:20:12;;;;;;;7.20;6.43;;;;;;;5.31;100.00;102424.53;6094560;29;20240;-70
2023/11/18 04:23:34;;;;;;;7.73;7.00;;;;;;;5.46;100.00;102422.09;6102047;29;20228;-69
2023/11/18 04:26:57;;;;;;;6.20;5.60;;;;;;;5.62;100.00;102424.97;6102675;29;20323;-70
2023/11/18 04:30:18;;;;;;;6.63;6.00;;;;;;;5.83;100.00;102425.81;6098095;29;20476;-69
2023/11/18 04:33:40;;;;;;;5.37;4.87;;;;;;;5.88;100.00;102416.72;6090465;29;20808;-69
2023/11/18 04:37:01;;;;;;;7.27;5.40;;;;;;;5.77;100.00;102426.09;6102543;29;20231;-69
2023/11/18 04:40:23;;;;;;;5.87;5.27;;;;;;;5.72;100.00;102409.38;6103116;29;20236;-69
2023/11/18 04:43:45;;;;;;;5.50;5.00;;;;;;;5.76;100.00;102411.84;6100913;29;20231;-69
2023/11/18 04:47:06;;;;;;;6.63;6.03;;;;;;;5.77;100.00;102410.03;6092316;29;20240;-70
2023/11/18 04:50:28;;;;;;;5.87;4.77;;;;;;;5.78;100.00;102427.84;6098228;29;20235;-70
2023/11/18 04:53:49;;;;;;;5.13;4.50;;;;;;;5.73;100.00;102417.34;6104597;29;20239;-70
2023/11/18 04:57:10;;;;;;;5.77;5.17;;;;;;;5.69;100.00;102421.94;6105896;29;20826;-70
2023/11/18 05:00:32;;;;;;;5.40;4.90;;;;;;;5.48;100.00;102422.91;6100275;29;20232;-70
2023/11/18 05:03:54;;;;;;;7.43;6.17;;;;;;;5.47;100.00;102420.25;6103554;29;20322;-68
2023/11/18 05:07:17;;;;;;;8.47;6.33;;;;;;;5.61;100.00;102420.56;6106110;29;20239;-70
2023/11/18 05:10:38;;;;;;;5.50;5.00;;;;;;;5.44;100.00;102417.75;6100295;29;20225;-68
2023/11/18 05:13:59;;;;;;;6.70;5.97;;;;;;;5.39;100.00;102404.56;6107037;28;21147;-69
2023/11/18 05:17:21;;;;;;;5.40;4.40;;;;;;;5.48;100.00;102406.84;6095917;29;20239;-70
2023/11/18 05:20:44;;;;;;;5.67;4.80;;;;;;;5.46;100.00;102399.81;6098396;29;20259;-69
2023/11/18 05:24:07;;;;;;;5.57;4.93;;;;;;;5.54;100.00;102389.66;6104111;29;20243;-70
2023/11/18 05:27:27;;;;;;;5.53;4.93;;;;;;;5.58;100.00;102383.22;6105322;29;20240;-69
2023/11/18 05:30:49;;;;;;;5.43;5.03;;;;;;;5.54;100.00;102392.34;6102406;29;20231;-69
2023/11/18 05:34:12;;;;;;;5.87;5.37;;;;;;;5.37;100.00;102394.84;6106442;29;20235;-69
2023/11/18 05:37:37;;;;;;;6.93;6.33;;;;;;;5.33;100.00;102382.56;6100994;29;20239;-70
2023/11/18 05:41:00;;;;;;;5.30;4.57;;;;;;;5.39;100.00;102382.28;6102866;29;20236;-70
2023/11/18 05:44:30;;;;;;;5.20;4.70;;;;;;;5.39;100.00;102384.97;6105309;29;20224;-69
2023/11/18 05:47:51;;;;;;;6.97;6.33;;;;;;;5.35;100.00;102381.56;6105695;29;20246;-69
2023/11/18 05:51:13;;;;;;;8.03;7.23;;;;;;;5.45;100.00;102382.03;6097996;29;20236;-70
2023/11/18 05:54:36;;;;;;;6.93;5.57;;;;;;;5.33;100.00;102383.44;6119174;29;20231;-69
2023/11/18 05:57:57;;;;;;;7.43;6.17;;;;;;;5.32;100.00;102376.34;6111221;29;20227;-69
2023/11/18 06:01:19;;;;;;;6.87;5.37;;;;;;;5.27;100.00;102370.34;6103091;29;20239;-69
2023/11/18 06:04:41;;;;;;;5.00;4.23;;;;;;;5.31;100.00;102373.75;6103221;29;20620;-70
2023/11/18 06:08:04;;;;;;;6.60;5.83;;;;;;;5.35;100.00;102368.19;6107510;29;20232;-70
2023/11/18 06:11:25;;;;;;;6.13;5.33;;;;;;;5.36;100.00;102374.41;6098380;29;20232;-68
2023/11/18 06:14:46;;;;;;;5.97;5.17;;;;;;;5.25;100.00;102376.69;6105454;28;20688;-69
2023/11/18 06:18:08;;;;;;;7.23;6.63;;;;;;;4.97;100.00;102387.66;6108032;29;20231;-68
2023/11/18 06:21:31;;;;;;;7.53;5.93;;;;;;;4.90;100.00;102378.16;6102822;29;20227;-68
2023/11/18 06:24:53;;;;;;;8.20;6.30;;;;;;;4.91;100.00;102376.34;6104421;28;20235;-69
2023/11/18 06:28:15;;;;;;;6.80;5.30;;;;;;;4.97;100.00;102373.41;6108374;29;20240;-70
2023/11/18 06:31:36;;;;;;;5.40;4.83;;;;;;;5.07;100.00;102375.63;6108306;29;20236;-69
2023/11/18 06:34:57;;;;;;;6.87;5.50;;;;;;;4.98;100.00;102370.69;6108177;29;20235;-68
2023/11/18 06:38:18;;;;;;;6.60;5.77;;;;;;;4.91;100.00;102373.66;6104413;28;20256;-70
2023/11/18 06:41:48;;;;;;;7.63;5.87;;;;;;;4.84;100.00;102381.94;6096420;29;20255;-69
2023/11/18 06:45:10;;;;;;;6.50;5.80;;;;;;;4.78;100.00;102370.63;6104888;29;20717;-69
2023/11/18 06:48:31;;;;;;;6.30;5.63;;;;;;;4.71;100.00;102375.34;6100599;29;20239;-69
2023/11/18 06:51:52;;;;;;;6.70;5.40;;;;;;;4.66;100.00;102385.38;6102678;29;20240;-69
2023/11/18 06:55:16;;;;;;;5.97;5.40;;;;;;;4.72;100.00;102393.13;6092532;29;20236;-69
2023/11/18 06:58:39;;;;;;;7.00;6.40;;;;;;;4.62;100.00;102396.22;6102451;29;20478;-69
2023/11/18 07:02:00;;;;;;;5.90;5.40;;;;;;;4.72;100.00;102402.94;6097229;29;20236;-69
2023/11/18 07:05:23;;;;;;;7.23;5.73;;;;;;;4.85;100.00;102404.19;6103532;29;20267;-69
2023/11/18 07:08:49;;;;;;;6.13;5.53;;;;;;;4.77;100.00;102409.84;6095279;29;20227;-69
2023/11/18 07:12:09;;;;;;;8.17;5.17;;;;;;;4.66;100.00;102428.09;6103223;29;20240;-69
2023/11/18 07:15:31;;;;;;;6.63;5.60;;;;;;;4.65;100.00;102430.84;6103406;29;20239;-69
2023/11/18 07:18:52;;;;;;;7.03;5.03;;;;;;;4.72;100.00;102440.31;6101016;29;20452;-69
2023/11/18 07:22:14;;;;;;;7.63;6.30;;;;;;;4.96;100.00;102442.03;6101275;28;20228;-68
2023/11/18 07:25:38;;;;;;;6.73;6.03;;;;;;;5.04;100.00;102442.59;6094588;29;20236;-70
2023/11/18 07:28:59;;;;;;;5.27;4.80;;;;;;;5.31;100.00;102432.56;6101021;29;20236;-69
2023/11/18 07:32:21;;;;;;;5.50;5.10;;;;;;;5.12;100.00;102429.78;6110612;29;20732;-69
2023/11/18 07:35:42;;;;;;;5.33;4.43;;;;;;;5.33;100.00;102415.53;6106471;29;21102;-69
2023/11/18 07:39:04;;;;;;;4.20;3.77;;;;;;;5.36;100.00;102406.50;6106563;29;20232;-69
2023/11/18 07:42:25;;;;;;;5.83;5.30;;;;;;;5.38;100.00;102412.66;6109992;29;20259;-70
2023/11/18 07:45:49;;;;;;;5.37;4.87;;;;;;;5.01;100.00;102428.47;6114341;29;20239;-69
2023/11/18 07:49:11;;;;;;;7.00;5.93;;;;;;;4.99;100.00;102439.22;6113302;28;20555;-69
2023/11/18 07:52:32;;;;;;;5.50;5.00;;;;;;;5.01;100.00;102429.34;6111682;29;20237;-69
2023/11/18 07:55:53;;;;;;;6.80;5.27;;;;;;;4.82;100.00;102434.56;6109474;29;20235;-69
2023/11/18 07:59:15;;;;;;;5.83;5.07;;;;;;;4.92;100.00;102431.53;6114460;29;20235;-69
2023/11/18 08:02:37;;;;;;;6.40;5.13;;;;;;;5.04;100.00;102431.91;6111017;29;20236;-70
2023/11/18 08:05:59;;;;;;;7.13;5.67;;;;;;;5.11;100.00;102427.19;6107611;28;20534;-69
2023/11/18 08:09:23;;;;;;;6.43;5.70;;;;;;;5.37;100.00;102418.94;6109220;29;20601;-69
2023/11/18 08:12:44;;;;;;;4.80;4.30;;;;;;;5.77;100.00;102432.31;6110522;29;20606;-69
2023/11/18 08:16:07;;;;;;;8.73;5.53;;;;;;;5.99;100.00;102422.41;6110394;29;20247;-69
2023/11/18 08:19:28;;;;;;;6.20;5.23;;;;;;;5.99;100.00;102425.09;6107331;29;20239;-68
2023/11/18 08:22:50;;;;;;;5.63;4.37;;;;;;;5.68;100.00;102419.34;6102039;29;20231;-69
2023/11/18 08:26:12;;;;;;;8.60;5.27;;;;;;;5.54;100.00;102427.97;6111283;29;20240;-70
2023/11/18 08:29:33;;;;;;;5.50;4.17;;;;;;;5.56;100.00;102427.91;6110485;29;20228;-69
2023/11/18 08:32:54;;;;;;;6.37;5.70;;;;;;;5.84;100.00;102414.22;6110247;29;20294;-69
2023/11/18 08:36:16;;;;;;;6.77;4.90;;;;;;;5.92;100.00;102414.75;6103439;29;20634;-69
2023/11/18 08:39:38;;;;;;;5.23;4.07;;;;;;;5.65;100.00;102406.97;6105378;29;20244;-69
2023/11/18 08:42:59;;;;;;;5.17;4.03;;;;;;;5.49;100.00;102405.03;6106918;29;20311;-69
2023/11/18 08:46:20;;;;;;;6.13;5.53;;;;;;;5.87;100.00;102400.69;6112292;29;20233;-69
2023/11/18 08:49:46;;;;;;;5.23;4.73;;;;;;;6.84;100.00;102405.88;6105009;29;20236;-69
2023/11/18 08:53:09;;;;;;;5.67;4.43;;;;;;;11.22;100.00;102377.44;6106019;29;20247;-69
2023/11/18 08:56:34;;;;;;;6.93;3.77;;;;;;;15.14;100.00;102365.41;6113098;29;20303;-68
2023/11/18 08:59:58;;;;;;;4.03;3.63;;;;;;;14.34;100.00;102380.22;6098743;29;20232;-69
2023/11/18 09:03:28;;;;;;;5.07;4.57;;;;;;;14.47;100.00;102374.69;6111695;29;20243;-69
2023/11/18 09:06:48;;;;;;;4.77;4.30;;;;;;;15.48;90.57;102372.44;6096548;29;20239;-69
2023/11/18 09:10:12;;;;;;;5.20;3.50;;;;;;;14.62;89.80;102371.59;6108372;28;20235;-69
2023/11/18 09:13:35;;;;;;;3.43;3.13;;;;;;;13.48;95.07;102376.22;6107462;28;20232;-69
2023/11/18 09:17:02;;;;;;;5.07;4.37;;;;;;;13.09;95.52;102372.03;6097872;29;20227;-70
2023/11/18 09:20:22;;;;;;;6.90;5.97;;;;;;;12.68;97.92;102366.94;6100075;29;20252;-69
2023/11/18 09:23:45;;;;;;;5.07;4.03;;;;;;;12.34;99.11;102364.13;6091392;29;20599;-69
2023/11/18 09:27:06;;;;;;;4.00;3.00;;;;;;;12.55;99.75;102362.56;6103185;29;20574;-69
2023/11/18 09:30:29;;;;;;;3.60;3.30;;;;;;;13.59;92.32;102357.31;6103379;29;20259;-70
2023/11/18 09:33:52;;;;;;;3.43;3.13;;;;;;;14.36;86.58;102343.00;6111486;29;20236;-69
2023/11/18 09:37:15;;;;;;;4.33;3.20;;;;;;;14.36;82.94;102351.13;6107025;29;20236;-69
2023/11/18 09:40:43;;;;;;;4.03;3.58;;;;;;;15.92;77.86;102347.69;6098582;29;20235;-69
2023/11/18 09:44:07;;;;;;;4.07;3.20;;;;;;;15.18;77.52;102367.75;6111181;29;20231;-70
2023/11/18 09:47:29;;;;;;;5.10;3.58;;;;;;;18.36;65.84;102358.38;6109276;29;20287;-70
2023/11/18 09:50:51;;;;;;;4.65;3.65;;;;;;;19.59;57.75;102349.53;6108587;29;20236;-70
2023/11/18 09:54:24;;;;;;;3.40;2.88;;;;;;;19.24;56.42;102341.31;6112278;29;20243;-69
2023/11/18 09:57:57;;;;;;;3.92;2.92;;;;;;;17.74;60.41;102350.84;6110125;29;20239;-70
2023/11/18 10:01:19;;;;;;;4.53;3.42;;;;;;;17.24;63.73;102343.81;6108867;29;20244;-69
2023/11/18 10:04:46;;;;;;;3.05;2.72;;;;;;;17.36;62.82;102338.06;6111820;29;20236;-70
2023/11/18 10:08:07;;;;;;;4.82;4.20;;;;;;;16.05;67.04;102343.88;6109989;28;20236;-70
2023/11/18 10:11:29;;;;;;;5.50;3.38;;;;;;;19.07;58.26;102334.84;6105168;29;20555;-69
2023/11/18 10:14:52;;;;;;;3.67;3.25;;;;;;;19.45;53.12;102328.22;6107180;29;20240;-69
2023/11/18 10:18:21;;;;;;;3.28;2.97;;;;;;;20.36;47.94;102339.47;6094364;29;20229;-70
2023/11/18 10:21:48;;;;;;;3.08;2.70;;;;;;;19.76;49.19;102338.56;6099437;28;21251;-69
2023/11/18 10:25:09;;;;;;;3.47;3.17;;;;;;;18.21;52.65;102327.97;6104099;29;20240;-69
2023/11/18 10:28:32;;;;;;;3.85;2.95;;;;;;;18.61;48.94;102316.75;6109989;29;20240;-70
2023/11/18 10:32:07;;;;;;;3.22;2.92;;;;;;;19.20;50.46;102302.50;6100828;29;22131;-70
2023/11/18 10:35:28;;;;;;;2.78;2.17;;;;;;;19.18;49.42;102301.81;6101322;29;20236;-71
2023/11/18 10:38:55;;;;;;;3.00;2.70;;;;;;;18.48;50.69;102297.16;6105865;28;20227;-70
2023/11/18 10:42:17;;;;;;;2.60;2.38;;;;;;;19.04;50.28;102296.91;6112914;29;20507;-69
2023/11/18 10:45:40;;;;;;;3.25;2.95;;;;;;;20.66;44.63;102291.44;6102035;29;20236;-70
2023/11/18 10:49:02;;;;;;;2.90;2.55;;;;;;;21.51;42.36;102284.72;6110160;29;20328;-70
2023/11/18 10:52:25;;;;;;;2.30;2.10;;;;;;;23.10;38.95;102287.03;6111974;29;20553;-70
2023/11/18 10:55:50;;;;;;;2.53;2.33;;;;;;;20.25;42.75;102292.34;6108251;28;20602;-70
2023/11/18 10:59:16;;;;;;;2.58;2.38;;;;;;;21.30;39.86;102285.22;6109275;29;20240;-70
2023/11/18 11:02:39;;;;;;;2.20;2.00;;;;;;;21.65;38.77;102268.41;6117702;29;20235;-70
2023/11/18 11:06:03;;;;;;;2.20;2.00;;;;;;;21.73;38.29;102260.16;6103891;29;20232;-69
2023/11/18 11:09:27;;;;;;;2.05;1.85;;;;;;;18.47;42.29;102262.63;6107270;29;20823;-69
2023/11/18 11:12:52;;;;;;;2.42;1.92;;;;;;;19.77;43.37;102249.97;6107946;28;20232;-70
2023/11/18 11:16:19;;;;;;;1.77;1.67;;;;;;;20.37;40.71;102242.56;6107534;29;20228;-70
2023/11/18 11:19:48;;;;;;;1.60;1.50;;;;;;;20.14;41.86;102241.41;6099473;29;20587;-69
2023/11/18 11:23:21;;;;;;;2.60;1.80;;;;;;;20.01;42.05;102238.28;6110524;29;20595;-69
2023/11/18 11:26:56;;;;;;;2.40;2.20;;;;;;;20.05;40.93;102230.59;6108851;29;20228;-69
2023/11/18 11:30:25;;;;;;;1.65;1.38;;;;;;;18.38;44.06;102217.09;6108065;29;20416;-70
2023/11/18 11:33:56;;;;;;;1.63;1.52;;;;;;;18.13;44.75;102209.63;6110521;29;20239;-70
2023/11/18 11:37:18;;;;;;;2.67;2.08;;;;;;;19.37;43.11;102197.72;6099175;29;20690;-70
2023/11/18 11:40:42;;;;;;;1.83;1.73;;;;;;;19.10;42.28;102190.50;6109179;29;20232;-68
2023/11/18 11:44:06;;;;;;;2.33;2.13;;;;;;;18.07;44.97;102197.47;6111210;29;20224;-70
2023/11/18 11:47:32;;;;;;;3.38;2.35;;;;;;;14.15;57.36;102209.06;6111141;28;20252;-70
2023/11/18 11:51:04;;;;;;;2.25;2.00;;;;;;;13.17;60.72;102204.41;6108582;29;21051;-70
2023/11/18 11:54:30;;;;;;;2.10;1.90;;;;;;;16.39;52.67;102193.78;6111193;29;20624;-69
2023/11/18 11:57:53;;;;;;;3.15;2.50;;;;;;;14.09;58.62;102193.31;6107673;29;20236;-69
2023/11/18 12:01:19;;;;;;;2.20;2.00;;;;;;;12.22;71.06;102195.53;6095410;29;20247;-70
2023/11/18 12:04:41;;;;;;;3.00;2.60;;;;;;;11.69;77.16;102193.22;6115401;28;20617;-70
2023/11/18 12:08:07;;;;;;;3.20;2.97;;;;;;;10.24;81.53;102195.28;6098833;29;20300;-70
2023/11/18 12:11:34;;;;;;;3.30;3.00;;;;;;;9.58;92.68;102187.91;6107997;29;20232;-69
2023/11/18 12:14:57;;;;;;;2.97;2.53;;;;;;;9.52;97.11;102192.81;6105881;29;20228;-69
2023/11/18 12:18:18;;;;;;;3.60;2.83;;;;;;;8.89;100.00;102196.81;6112223;29;20244;-69
2023/11/18 12:22:00;;;;;;;3.23;2.80;;;;;;;9.33;99.92;102195.78;6111423;28;20235;-70
2023/11/18 12:25:39;;;;;;;3.23;2.90;;;;;;;9.71;98.53;102195.19;6105287;29;20791;-70
2023/11/18 12:28:59;;;;;;;2.50;2.30;;;;;;;9.18;99.53;102183.28;6099618;29;20236;-70
2023/11/18 12:32:58;;;;;;;3.70;2.80;;;;;;;9.21;100.00;102175.03;6096897;29;20614;-69
2023/11/18 12:36:57;;;;;;;3.97;3.40;;;;;;;9.08;100.00;102171.38;6092258;29;20228;-69
2023/11/18 12:40:34;;;;;;;2.50;2.30;;;;;;;8.83;100.00;102185.47;6101038;29;20712;-70
2023/11/18 12:44:18;;;;;;;3.77;3.20;;;;;;;9.19;100.00;102182.34;6105079;29;20240;-69
2023/11/18 12:47:40;;;;;;;3.40;3.10;;;;;;;9.30;100.00;102182.53;6103264;29;20243;-68
2023/11/18 12:51:01;;;;;;;7.33;3.00;;;;;;;8.88;100.00;102187.88;6106789;28;20260;-69
2023/11/18 12:54:24;;;;;;;2.70;2.13;;;;;;;8.52;100.00;102184.69;6106817;29;20232;-69
2023/11/18 12:57:48;;;;;;;3.63;2.50;;;;;;;8.41;100.00;102185.31;6105877;29;20240;-69
2023/11/18 13:01:14;;;;;;;3.53;3.23;;;;;;;8.41;100.00;102181.75;6106051;29;20319;-68
2023/11/18 13:04:35;;;;;;;3.53;3.23;;;;;;;8.54;100.00;102166.66;6106914;29;20577;-68
2023/11/18 13:07:57;;;;;;;2.60;2.17;;;;;;;8.62;100.00;102159.88;6108181;29;20232;-69
2023/11/18 13:11:18;;;;;;;3.23;2.90;;;;;;;8.30;100.00;102171.69;6105879;29;20262;-69
2023/11/18 13:14:42;;;;;;;2.63;2.43;;;;;;;7.77;100.00;102177.41;6109053;29;20232;-69
2023/11/18 13:18:06;;;;;;;2.57;2.30;;;;;;;8.05;100.00;102190.97;6108973;29;20456;-68
2023/11/18 13:21:29;;;;;;;3.87;3.23;;;;;;;8.11;100.00;102191.59;6102847;28;20256;-68
2023/11/18 13:24:50;;;;;;;3.83;3.53;;;;;;;7.85;100.00;102190.38;6107001;29;20600;-69
2023/11/18 13:28:12;;;;;;;4.67;3.20;;;;;;;7.90;100.00;102164.16;6097499;28;20236;-69
2023/11/18 13:31:34;;;;;;;3.07;2.70;;;;;;;7.88;100.00;102153.50;6091975;29;20243;-70
2023/11/18 13:34:55;;;;;;;2.33;2.13;;;;;;;7.75;100.00;102147.09;6102946;29;20267;-69
2023/11/18 13:38:18;;;;;;;4.57;3.67;;;;;;;8.26;100.00;102145.91;6102467;29;20235;-71
2023/11/18 13:41:40;;;;;;;3.30;3.00;;;;;;;7.69;100.00;102130.47;6100958;28;20231;-67
2023/11/18 13:45:08;;;;;;;3.07;2.73;;;;;;;8.00;100.00;102099.09;6094686;28;20259;-69
2023/11/18 13:48:30;;;;;;;3.70;3.07;;;;;;;8.25;100.00;102103.00;6107877;28;20246;-68
2023/11/18 13:51:51;;;;;;;4.63;2.70;;;;;;;8.25;100.00;102097.63;6080831;28;20240;-70
2023/11/18 13:55:16;;;;;;;4.00;2.70;;;;;;;7.85;100.00;102074.94;6100990;29;20232;-69
2023/11/18 13:58:38;;;;;;;3.63;2.70;;;;;;;7.65;100.00;102062.69;6106822;29;20836;-71
2023/11/18 14:02:01;;;;;;;3.30;2.93;;;;;;;7.60;100.00;102046.00;6108065;29;20664;-71
2023/11/18 14:05:24;;;;;;;3.03;2.83;;;;;;;7.28;100.00;102029.03;6062332;29;1041367;-68
2023/11/18 14:08:45;;;;;;;4.70;3.60;;;;;;;7.43;100.00;102026.44;6105812;29;20232;-69
2023/11/18 14:12:08;;;;;;;3.63;3.33;;;;;;;7.16;100.00;102035.09;6103821;29;22424;-70
2023/11/18 14:15:31;;;;;;;5.73;4.00;;;;;;;7.09;100.00;102031.03;6111989;29;20554;-69
2023/11/18 14:18:52;;;;;;;4.03;3.23;;;;;;;7.30;100.00;102025.44;6106014;29;20232;-70
2023/11/18 14:22:14;;;;;;;2.80;2.60;;;;;;;7.18;100.00;102027.84;6103239;29;20247;-69
2023/11/18 14:25:35;;;;;;;3.10;2.80;;;;;;;7.17;100.00;102026.13;6102093;29;21204;-69
2023/11/18 14:28:58;;;;;;;3.13;2.87;;;;;;;7.14;100.00;102026.28;6091350;29;20724;-68
2023/11/18 14:32:19;;;;;;;4.27;3.10;;;;;;;7.17;100.00;102018.09;6096381;29;20318;-69
2023/11/18 14:35:40;;;;;;;2.63;2.43;;;;;;;7.19;100.00;101999.22;6096026;29;20702;-69
2023/11/18 14:39:03;;;;;;;4.10;2.70;;;;;;;7.07;100.00;101995.41;6100565;29;20267;-69
2023/11/18 14:42:24;;;;;;;2.53;2.33;;;;;;;7.19;100.00;101989.38;6099986;29;20909;-70
2023/11/18 14:45:45;;;;;;;3.20;2.83;;;;;;;6.96;100.00;101981.75;6095577;29;20220;-68
2023/11/18 14:49:06;;;;;;;4.17;2.83;;;;;;;7.12;100.00;101960.28;6101229;29;20670;-69
2023/11/18 14:52:27;;;;;;;6.13;3.27;;;;;;;7.10;100.00;101970.22;6106817;29;20550;-69
2023/11/18 14:55:50;;;;;;;2.90;2.60;;;;;;;6.98;100.00;101955.72;6106518;29;20232;-70
2023/11/18 14:59:12;;;;;;;2.87;2.67;;;;;;;7.17;100.00;101953.72;6103699;29;20244;-69
2023/11/18 15:02:32;;;;;;;3.47;2.57;;;;;;;7.31;100.00;101936.81;6098424;29;20236;-69
2023/11/18 15:05:53;;;;;;;2.33;2.20;;;;;;;6.75;100.00;101936.50;6092328;29;20228;-70
2023/11/18 15:09:14;;;;;;;2.63;2.23;;;;;;;6.64;100.00;101944.28;6094627;29;20319;-69
2023/11/18 15:12:40;;;;;;;3.53;2.67;;;;;;;7.15;100.00;101934.16;6093291;29;20243;-70
2023/11/18 15:16:04;;;;;;;2.27;2.00;;;;;;;6.93;100.00;101936.34;6085452;29;20240;-70
2023/11/18 15:19:26;;;;;;;6.30;2.50;;;;;;;6.78;100.00;101925.63;6086518;29;20244;-69
2023/11/18 15:22:48;;;;;;;3.23;2.20;;;;;;;6.66;100.00;101919.13;6094893;29;20319;-70
2023/11/18 15:26:08;;;;;;;2.73;2.33;;;;;;;6.61;100.00;101928.38;6087397;29;20875;-70
2023/11/18 15:29:37;;;;;;;4.97;2.40;;;;;;;6.68;100.00;101916.38;6099259;29;20244;-71
2023/11/18 15:32:58;;;;;;;3.60;2.43;;;;;;;6.67;100.00;101920.88;6102734;29;20278;-69
2023/11/18 15:36:19;;;;;;;2.63;2.27;;;;;;;6.53;100.00;101910.03;6105344;29;20599;-71
2023/11/18 15:39:41;;;;;;;2.43;2.23;;;;;;;6.64;100.00;101896.94;6093297;29;20541;-69
2023/11/18 15:43:01;;;;;;;7.10;3.83;;;;;;;6.56;100.00;101919.72;6108577;29;20242;-70